ADDS METAR Data INFO
IDs: Format: Raw Decoded Include TAF

Data at: 2305 UTC 15 Jul 2018

K8W2 152255Z AUTO 00000KT 5SM BKN110 24/23 A3002 RMK AO1 P0005 T02420233
K8W2 152235Z AUTO 00000KT 5SM SCT033 SCT048 BKN060 25/24 A3001 RMK AO1 P0003 T02490241
K8W2 152215Z AUTO 00000KT 4SM SCT037 BKN050 OVC110 25/24 A3002 RMK AO1 P0001 T02460240
K8W2 152155Z AUTO 25003KT 4SM SCT037 BKN048 OVC100 25/25 A3001 RMK AO1 P0004 T02520245
K8W2 152135Z AUTO 00000KT 7SM BKN075 OVC100 26/25 A3000 RMK AO1 T02550249
K8W2 152115Z AUTO 00000KT 10SM SCT100 27/24 A3000 RMK AO1 T02660241
K8W2 152055Z AUTO 00000KT 10SM CLR 28/25 A2999 RMK AO1 T02750252
K8W2 152035Z AUTO 00000KT 10SM SCT110 29/23 A2999 RMK AO1 T02920233
K8W2 152015Z AUTO 23004KT 10SM SCT110 30/21 A3000 RMK AO1 T03030210
K8W2 151955Z AUTO 00000KT 10SM CLR 30/21 A3000 RMK AO1 T03040213
K8W2 151935Z AUTO 00000KT 10SM CLR 30/21 A3001 RMK AO1 T03000211
K8W2 151915Z AUTO 00000KT 10SM CLR 30/21 A3000 RMK AO1 T03040212
K8W2 151855Z AUTO 00000KT 10SM SCT065 29/25 A3000 RMK AO1 T02860249
K8W2 151835Z AUTO 00000KT 10SM SCT065 28/26 A3002 RMK AO1 T02790255
K8W2 151815Z AUTO 00000KT 10SM CLR 29/23 A3003 RMK AO1 T02900233
K8W2 151755Z AUTO 00000KT 10SM CLR 30/23 A3002 RMK AO1 T02950230 10303 20228
K8W2 151735Z AUTO 00000KT 10SM CLR 30/21 A3002 RMK AO1 T03000207
K8W2 151715Z AUTO 00000KT 10SM CLR 30/21 A3002 RMK AO1 T03030207
K8W2 151655Z AUTO 00000KT 10SM CLR 30/21 A3002 RMK AO1 T02960207
K8W2 151635Z AUTO 00000KT 10SM CLR 30/21 A3003 RMK AO1 T02960205
K8W2 151615Z AUTO 00000KT 10SM CLR 29/20 A3003 RMK AO1 T02900204
K8W2 151555Z AUTO 00000KT 10SM SCT060 29/20 A3003 RMK AO1 T02900204
K8W2 151535Z AUTO 00000KT 10SM SCT060 28/20 A3003 RMK AO1 T02840203
K8W2 151515Z AUTO 00000KT 10SM BKN060 28/20 A3004 RMK AO1 T02810199
K8W2 151455Z AUTO 25003KT 10SM CLR 28/20 A3004 RMK AO1 T02780199
K8W2 151435Z AUTO 24004KT 10SM CLR 27/19 A3004 RMK AO1 T02730193
K8W2 151415Z AUTO 23005KT 10SM CLR 27/19 A3004 RMK AO1 T02660193
K8W2 151355Z AUTO 23004KT 10SM CLR 26/19 A3005 RMK AO1 T02600190
K8W2 151335Z AUTO 21003KT 10SM CLR 26/19 A3006 RMK AO1 T02550191
K8W2 151315Z AUTO 23006KT 10SM CLR 25/19 A3007 RMK AO1 T02500190
K8W2 151255Z AUTO 25003KT 10SM SCT100 24/19 A3006 RMK AO1 T02400193
K8W2 151235Z AUTO 25005KT 10SM SCT100 24/19 A3007 RMK AO1 T02370190
K8W2 151215Z AUTO 23004KT 10SM CLR 23/19 A3007 RMK AO1 T02310190
K8W2 151155Z AUTO 00000KT 10SM CLR 23/19 A3007 RMK AO1 T02270189 10232 20196
K8W2 151135Z AUTO 00000KT 10SM CLR 22/20 A3007 RMK AO1 T02150197
K8W2 151115Z AUTO 00000KT 10SM CLR 21/20 A3007 RMK AO1 T02110197
K8W2 151055Z AUTO 00000KT 10SM CLR 20/20 A3007 RMK AO1 T02010195
K8W2 151035Z AUTO 00000KT 10SM CLR 20/19 A3007 RMK AO1 T01990193
K8W2 151015Z AUTO 00000KT 10SM CLR 20/19 A3007 RMK AO1 T01990193
K8W2 150955Z AUTO 24004KT 10SM CLR 22/19 A3007 RMK AO1 T02180190
K8W2 150935Z AUTO 25004KT 10SM SCT100 22/19 A3006 RMK AO1 T02170190
K8W2 150915Z AUTO 26003KT 10SM SCT100 20/20 A3006 RMK AO1 T02010195
K8W2 150855Z AUTO 00000KT 10SM CLR 20/19 A3007 RMK AO1 T02000194
K8W2 150835Z AUTO 00000KT 10SM CLR 20/20 A3007 RMK AO1 T02020196
K8W2 150815Z AUTO 00000KT 10SM CLR 20/19 A3007 RMK AO1 T02000194
K8W2 150755Z AUTO 00000KT 10SM CLR 20/20 A3008 RMK AO1 T02020196
K8W2 150735Z AUTO 24003KT 10SM CLR 22/20 A3007 RMK AO1 T02180198
K8W2 150715Z AUTO 24003KT 10SM CLR 21/20 A3007 RMK AO1 T02120200
K8W2 150655Z AUTO 23003KT 10SM CLR 22/20 A3007 RMK AO1 T02200198
K8W2 150635Z AUTO 26005KT 10SM CLR 23/20 A3007 RMK AO1 T02300195
K8W2 150615Z AUTO 25003KT 10SM CLR 22/20 A3007 RMK AO1 T02200200
K8W2 150555Z AUTO 23003KT 10SM CLR 22/20 A3008 RMK AO1 T02240200 10280 20218
K8W2 150535Z AUTO 25004KT 10SM CLR 24/20 A3009 RMK AO1 T02360195
K8W2 150515Z AUTO 26004KT 10SM CLR 24/20 A3009 RMK AO1 T02370195
K8W2 150455Z AUTO 24004KT 10SM CLR 23/20 A3009 RMK AO1 T02260201
K8W2 150435Z AUTO 25004KT 10SM CLR 23/21 A3009 RMK AO1 T02250205
K8W2 150415Z AUTO 23003KT 10SM CLR 22/21 A3009 RMK AO1 T02200208
K8W2 150355Z AUTO 00000KT 10SM CLR 22/21 A3009 RMK AO1 T02180207 403300161
K8W2 150335Z AUTO 00000KT 10SM CLR 22/21 A3009 RMK AO1 T02220209
K8W2 150315Z AUTO 00000KT 10SM CLR 23/21 A3009 RMK AO1 T02270210
K8W2 150255Z AUTO 00000KT 10SM CLR 23/21 A3008 RMK AO1 T02300210
K8W2 150235Z AUTO 00000KT 10SM CLR 23/21 A3008 RMK AO1 T02250210
K8W2 150215Z AUTO 00000KT 10SM CLR 23/21 A3007 RMK AO1 T02290211
K8W2 150155Z AUTO 00000KT 10SM CLR 23/21 A3007 RMK AO1 T02340211
K8W2 150135Z AUTO 00000KT 10SM CLR 24/21 A3007 RMK AO1 T02440209
K8W2 150115Z AUTO 00000KT 10SM CLR 24/21 A3006 RMK AO1 T02430210
K8W2 150055Z AUTO 00000KT 10SM CLR 24/21 A3005 RMK AO1 T02420212
K8W2 150035Z AUTO 00000KT 10SM CLR 26/21 A3005 RMK AO1 T02600209
K8W2 150015Z AUTO 00000KT 10SM CLR 28/20 A3005 RMK AO1 T02760202
K8W2 142355Z AUTO 00000KT 10SM CLR 28/20 A3005 RMK AO1 T02810203 10330 20281
K8W2 142335Z AUTO 18004KT 10SM CLR 29/20 A3004 RMK AO1 T02900203
K8W2 142315Z AUTO 17004KT 10SM CLR 30/20 A3004 RMK AO1 T02960202
K8W2 142255Z AUTO 17005KT 10SM CLR 30/20 A3004 RMK AO1 T03040201
K8W2 142235Z AUTO 16005KT 10SM CLR 31/20 A3005 RMK AO1 T03100197
K8W2 142215Z AUTO 17005KT 10SM CLR 32/19 A3006 RMK AO1 T03150191
K8W2 142155Z AUTO 21003KT 10SM SCT055 31/17 A3007 RMK AO1 T03140174
K8W2 142135Z AUTO 22004KT 10SM CLR 32/17 A3007 RMK AO1 T03180170
K8W2 142115Z AUTO 13004KT 10SM SCT055 33/17 A3007 RMK AO1 T03250167
K8W2 142055Z AUTO 19003KT 10SM SCT055 32/17 A3007 RMK AO1 T03200174
K8W2 142035Z AUTO 17004KT 10SM SCT055 33/17 A3008 RMK AO1 T03250173
K8W2 142015Z AUTO 21004KT 10SM CLR 32/17 A3009 RMK AO1 T03190173
K8W2 141955Z AUTO 22006KT 10SM SCT050 32/17 A3010 RMK AO1 T03160171
K8W2 141935Z AUTO 13003KT 10SM CLR 33/17 A3010 RMK AO1 T03250170
K8W2 141915Z AUTO 22005KT 10SM CLR 31/17 A3011 RMK AO1 T03140172
K8W2 141855Z AUTO 00000KT 10SM CLR 31/17 A3011 RMK AO1 T03090172
K8W2 141835Z AUTO 21003KT 10SM CLR 32/18 A3011 RMK AO1 T03160181
K8W2 141815Z AUTO 22004KT 10SM CLR 30/18 A3012 RMK AO1 T03040176
K8W2 141755Z AUTO 17006KT 10SM SCT042 31/18 A3012 RMK AO1 T03080182 10314 20209
K8W2 141735Z AUTO 18003KT 10SM 30/18 A3013 RMK AO1 T02970184
K8W2 141715Z AUTO 15004KT 10SM CLR 30/18 A3013 RMK AO1 T02980183
K8W2 141655Z AUTO 23006KT 10SM CLR 30/19 A3014 RMK AO1 T02970188
K8W2 141635Z AUTO 20003KT 10SM CLR 29/19 A3015 RMK AO1 T02860186
K8W2 141615Z AUTO 22004KT 10SM CLR 28/19 A3015 RMK AO1 T02820185
K8W2 141555Z AUTO 21004KT 10SM CLR 28/18 A3015 RMK AO1 T02800183
K8W2 141535Z AUTO 21004KT 10SM CLR 27/18 A3016 RMK AO1 T02740183
K8W2 141515Z AUTO 23006KT 10SM CLR 27/18 A3017 RMK AO1 T02660180
K8W2 141455Z AUTO 21006KT 10SM CLR 26/18 A3016 RMK AO1 T02630180
K8W2 141435Z AUTO 20004KT 10SM CLR 26/18 A3016 RMK AO1 T02590180
K8W2 141415Z AUTO 21006KT 10SM CLR 26/18 A3017 RMK AO1 T02570181
K8W2 141355Z AUTO 20004KT 10SM CLR 25/18 A3017 RMK AO1 T02480178
K8W2 141335Z AUTO 22004KT 10SM CLR 25/18 A3017 RMK AO1 T02490179
K8W2 141315Z AUTO 22004KT 10SM CLR 24/18 A3018 RMK AO1 T02400175
K8W2 141255Z AUTO 20005KT 10SM CLR 23/18 A3017 RMK AO1 T02340175
K8W2 141235Z AUTO 23003KT 10SM CLR 22/18 A3018 RMK AO1 T02200179
K8W2 141215Z AUTO 00000KT 10SM CLR 21/18 A3018 RMK AO1 T02110177
K8W2 141155Z AUTO 00000KT 10SM CLR 21/18 A3018 RMK AO1 T02060179 10206 20161
K8W2 141135Z AUTO 00000KT 10SM CLR 20/18 A3018 RMK AO1 T01960184
K8W2 141115Z AUTO 00000KT 7SM CLR 18/18 A3018 RMK AO1 T01840175